sensor_id;sensor_type;location;lat;lon;timestamp;P1;durP1;ratioP1;P2;durP2;ratioP2
7845;SDS011;3968;51.424;6.788;2023-04-27T00:01:13;7.37;;;5.83;;
7845;SDS011;3968;51.424;6.788;2023-04-27T00:03:39;10.37;;;6.13;;
7845;SDS011;3968;51.424;6.788;2023-04-27T00:06:06;9.40;;;5.70;;
7845;SDS011;3968;51.424;6.788;2023-04-27T00:08:33;11.03;;;5.97;;
7845;SDS011;3968;51.424;6.788;2023-04-27T00:10:59;7.57;;;5.73;;
7845;SDS011;3968;51.424;6.788;2023-04-27T00:13:25;8.10;;;5.50;;
7845;SDS011;3968;51.424;6.788;2023-04-27T00:15:51;11.57;;;5.67;;
7845;SDS011;3968;51.424;6.788;2023-04-27T00:18:17;10.33;;;6.13;;
7845;SDS011;3968;51.424;6.788;2023-04-27T00:20:43;8.77;;;5.77;;
7845;SDS011;3968;51.424;6.788;2023-04-27T00:23:09;8.23;;;5.57;;
7845;SDS011;3968;51.424;6.788;2023-04-27T00:25:35;9.93;;;6.00;;
7845;SDS011;3968;51.424;6.788;2023-04-27T00:28:01;6.77;;;5.57;;
7845;SDS011;3968;51.424;6.788;2023-04-27T00:30:27;8.87;;;6.17;;
7845;SDS011;3968;51.424;6.788;2023-04-27T00:32:53;6.73;;;6.00;;
7845;SDS011;3968;51.424;6.788;2023-04-27T00:35:19;7.43;;;5.70;;
7845;SDS011;3968;51.424;6.788;2023-04-27T00:37:45;9.83;;;5.67;;
7845;SDS011;3968;51.424;6.788;2023-04-27T00:40:11;8.93;;;6.27;;
7845;SDS011;3968;51.424;6.788;2023-04-27T00:42:37;7.00;;;6.00;;
7845;SDS011;3968;51.424;6.788;2023-04-27T00:45:03;7.67;;;6.07;;
7845;SDS011;3968;51.424;6.788;2023-04-27T00:47:30;11.77;;;6.10;;
7845;SDS011;3968;51.424;6.788;2023-04-27T00:49:57;9.50;;;5.57;;
7845;SDS011;3968;51.424;6.788;2023-04-27T00:52:23;9.10;;;6.37;;
7845;SDS011;3968;51.424;6.788;2023-04-27T00:54:50;10.07;;;5.80;;
7845;SDS011;3968;51.424;6.788;2023-04-27T00:57:17;10.97;;;6.63;;
7845;SDS011;3968;51.424;6.788;2023-04-27T00:59:43;9.20;;;6.17;;
7845;SDS011;3968;51.424;6.788;2023-04-27T01:02:10;7.37;;;6.27;;
7845;SDS011;3968;51.424;6.788;2023-04-27T01:04:36;7.93;;;6.00;;
7845;SDS011;3968;51.424;6.788;2023-04-27T01:07:02;8.03;;;5.67;;
7845;SDS011;3968;51.424;6.788;2023-04-27T01:09:28;14.53;;;7.13;;
7845;SDS011;3968;51.424;6.788;2023-04-27T01:11:54;11.10;;;6.57;;
7845;SDS011;3968;51.424;6.788;2023-04-27T01:14:22;9.33;;;5.93;;
7845;SDS011;3968;51.424;6.788;2023-04-27T01:16:48;12.57;;;7.03;;
7845;SDS011;3968;51.424;6.788;2023-04-27T01:19:14;11.00;;;6.23;;
7845;SDS011;3968;51.424;6.788;2023-04-27T01:21:40;9.80;;;7.70;;
7845;SDS011;3968;51.424;6.788;2023-04-27T01:24:06;10.23;;;6.60;;
7845;SDS011;3968;51.424;6.788;2023-04-27T01:26:33;10.70;;;6.73;;
7845;SDS011;3968;51.424;6.788;2023-04-27T01:28:59;9.33;;;6.63;;
7845;SDS011;3968;51.424;6.788;2023-04-27T01:31:25;9.07;;;6.33;;
7845;SDS011;3968;51.424;6.788;2023-04-27T01:33:51;8.20;;;6.87;;
7845;SDS011;3968;51.424;6.788;2023-04-27T01:36:17;12.30;;;6.83;;
7845;SDS011;3968;51.424;6.788;2023-04-27T01:38:43;7.37;;;6.07;;
7845;SDS011;3968;51.424;6.788;2023-04-27T01:41:09;10.03;;;6.37;;
7845;SDS011;3968;51.424;6.788;2023-04-27T01:43:35;8.77;;;6.87;;
7845;SDS011;3968;51.424;6.788;2023-04-27T01:46:08;10.07;;;6.97;;
7845;SDS011;3968;51.424;6.788;2023-04-27T01:48:34;9.27;;;6.30;;
7845;SDS011;3968;51.424;6.788;2023-04-27T01:51:01;12.00;;;6.63;;
7845;SDS011;3968;51.424;6.788;2023-04-27T01:53:27;12.67;;;6.50;;
7845;SDS011;3968;51.424;6.788;2023-04-27T01:55:53;9.27;;;6.73;;
7845;SDS011;3968;51.424;6.788;2023-04-27T01:58:19;8.07;;;6.47;;
7845;SDS011;3968;51.424;6.788;2023-04-27T02:00:45;11.37;;;6.30;;
7845;SDS011;3968;51.424;6.788;2023-04-27T02:03:11;10.70;;;6.40;;
7845;SDS011;3968;51.424;6.788;2023-04-27T02:05:37;8.73;;;6.90;;
7845;SDS011;3968;51.424;6.788;2023-04-27T02:08:04;8.37;;;6.40;;
7845;SDS011;3968;51.424;6.788;2023-04-27T02:10:30;11.00;;;7.93;;
7845;SDS011;3968;51.424;6.788;2023-04-27T02:12:56;9.67;;;6.70;;
7845;SDS011;3968;51.424;6.788;2023-04-27T02:15:22;10.83;;;6.80;;
7845;SDS011;3968;51.424;6.788;2023-04-27T02:17:48;10.37;;;7.00;;
7845;SDS011;3968;51.424;6.788;2023-04-27T02:20:14;10.53;;;6.80;;
7845;SDS011;3968;51.424;6.788;2023-04-27T02:22:43;7.57;;;6.63;;
7845;SDS011;3968;51.424;6.788;2023-04-27T02:25:10;11.67;;;6.80;;
7845;SDS011;3968;51.424;6.788;2023-04-27T02:27:39;12.50;;;7.17;;
7845;SDS011;3968;51.424;6.788;2023-04-27T02:30:06;9.77;;;6.53;;
7845;SDS011;3968;51.424;6.788;2023-04-27T02:32:32;11.47;;;7.47;;
7845;SDS011;3968;51.424;6.788;2023-04-27T02:34:59;9.57;;;7.27;;
7845;SDS011;3968;51.424;6.788;2023-04-27T02:37:25;13.63;;;7.10;;
7845;SDS011;3968;51.424;6.788;2023-04-27T02:39:51;13.10;;;8.10;;
7845;SDS011;3968;51.424;6.788;2023-04-27T02:42:17;13.37;;;8.30;;
7845;SDS011;3968;51.424;6.788;2023-04-27T02:44:43;9.13;;;6.30;;
7845;SDS011;3968;51.424;6.788;2023-04-27T02:47:10;9.30;;;7.60;;
7845;SDS011;3968;51.424;6.788;2023-04-27T02:49:36;12.40;;;7.10;;
7845;SDS011;3968;51.424;6.788;2023-04-27T02:52:02;12.33;;;7.60;;
7845;SDS011;3968;51.424;6.788;2023-04-27T02:54:28;12.43;;;7.93;;
7845;SDS011;3968;51.424;6.788;2023-04-27T02:56:54;9.83;;;7.33;;
7845;SDS011;3968;51.424;6.788;2023-04-27T02:59:20;10.80;;;7.03;;
7845;SDS011;3968;51.424;6.788;2023-04-27T03:01:46;13.93;;;7.97;;
7845;SDS011;3968;51.424;6.788;2023-04-27T03:04:12;11.90;;;8.03;;
7845;SDS011;3968;51.424;6.788;2023-04-27T03:06:42;13.07;;;8.30;;
7845;SDS011;3968;51.424;6.788;2023-04-27T03:09:08;11.00;;;7.37;;
7845;SDS011;3968;51.424;6.788;2023-04-27T03:11:34;10.40;;;7.33;;
7845;SDS011;3968;51.424;6.788;2023-04-27T03:14:01;11.93;;;7.87;;
7845;SDS011;3968;51.424;6.788;2023-04-27T03:16:27;11.17;;;7.70;;
7845;SDS011;3968;51.424;6.788;2023-04-27T03:18:53;13.57;;;7.57;;
7845;SDS011;3968;51.424;6.788;2023-04-27T03:21:19;13.00;;;7.73;;
7845;SDS011;3968;51.424;6.788;2023-04-27T03:23:46;12.93;;;7.10;;
7845;SDS011;3968;51.424;6.788;2023-04-27T03:26:12;9.93;;;7.63;;
7845;SDS011;3968;51.424;6.788;2023-04-27T03:28:38;13.57;;;7.80;;
7845;SDS011;3968;51.424;6.788;2023-04-27T03:31:05;13.60;;;7.13;;
7845;SDS011;3968;51.424;6.788;2023-04-27T03:33:31;10.03;;;7.00;;
7845;SDS011;3968;51.424;6.788;2023-04-27T03:35:58;13.90;;;7.00;;
7845;SDS011;3968;51.424;6.788;2023-04-27T03:38:24;11.13;;;6.90;;
7845;SDS011;3968;51.424;6.788;2023-04-27T03:40:51;10.37;;;6.93;;
7845;SDS011;3968;51.424;6.788;2023-04-27T03:43:18;10.73;;;7.10;;
7845;SDS011;3968;51.424;6.788;2023-04-27T03:45:44;9.87;;;6.30;;
7845;SDS011;3968;51.424;6.788;2023-04-27T03:48:10;12.00;;;6.73;;
7845;SDS011;3968;51.424;6.788;2023-04-27T03:50:37;10.97;;;6.57;;
7845;SDS011;3968;51.424;6.788;2023-04-27T03:53:03;10.10;;;6.53;;
7845;SDS011;3968;51.424;6.788;2023-04-27T03:55:29;10.63;;;6.27;;
7845;SDS011;3968;51.424;6.788;2023-04-27T03:57:55;13.30;;;6.63;;
7845;SDS011;3968;51.424;6.788;2023-04-27T04:00:21;8.93;;;6.20;;
7845;SDS011;3968;51.424;6.788;2023-04-27T04:02:48;14.03;;;6.50;;
7845;SDS011;3968;51.424;6.788;2023-04-27T04:05:16;9.47;;;6.27;;
7845;SDS011;3968;51.424;6.788;2023-04-27T04:07:42;9.43;;;6.60;;
7845;SDS011;3968;51.424;6.788;2023-04-27T04:10:08;13.40;;;6.33;;
7845;SDS011;3968;51.424;6.788;2023-04-27T04:12:35;8.93;;;5.90;;
7845;SDS011;3968;51.424;6.788;2023-04-27T04:15:01;11.03;;;6.17;;
7845;SDS011;3968;51.424;6.788;2023-04-27T04:17:28;11.23;;;6.33;;
7845;SDS011;3968;51.424;6.788;2023-04-27T04:19:54;12.43;;;6.60;;
7845;SDS011;3968;51.424;6.788;2023-04-27T04:22:20;10.00;;;6.30;;
7845;SDS011;3968;51.424;6.788;2023-04-27T04:24:46;16.70;;;6.77;;
7845;SDS011;3968;51.424;6.788;2023-04-27T04:27:12;9.20;;;6.57;;
7845;SDS011;3968;51.424;6.788;2023-04-27T04:29:38;9.40;;;6.33;;
7845;SDS011;3968;51.424;6.788;2023-04-27T04:32:04;9.80;;;6.23;;
7845;SDS011;3968;51.424;6.788;2023-04-27T04:34:31;9.87;;;6.27;;
7845;SDS011;3968;51.424;6.788;2023-04-27T04:36:57;9.23;;;6.50;;
7845;SDS011;3968;51.424;6.788;2023-04-27T04:39:23;12.97;;;6.33;;
7845;SDS011;3968;51.424;6.788;2023-04-27T04:41:51;13.80;;;6.20;;
7845;SDS011;3968;51.424;6.788;2023-04-27T04:44:17;20.53;;;6.70;;
7845;SDS011;3968;51.424;6.788;2023-04-27T04:46:44;12.20;;;6.83;;
7845;SDS011;3968;51.424;6.788;2023-04-27T04:49:11;14.07;;;6.13;;
7845;SDS011;3968;51.424;6.788;2023-04-27T04:51:40;9.10;;;6.77;;
7845;SDS011;3968;51.424;6.788;2023-04-27T04:54:07;10.30;;;6.40;;
7845;SDS011;3968;51.424;6.788;2023-04-27T04:56:33;12.23;;;6.83;;
7845;SDS011;3968;51.424;6.788;2023-04-27T04:58:59;11.27;;;7.10;;
7845;SDS011;3968;51.424;6.788;2023-04-27T05:01:25;11.90;;;6.60;;
7845;SDS011;3968;51.424;6.788;2023-04-27T05:03:51;12.83;;;7.80;;
7845;SDS011;3968;51.424;6.788;2023-04-27T05:06:18;13.23;;;7.60;;
7845;SDS011;3968;51.424;6.788;2023-04-27T05:08:44;14.07;;;7.37;;
7845;SDS011;3968;51.424;6.788;2023-04-27T05:11:12;13.73;;;7.30;;
7845;SDS011;3968;51.424;6.788;2023-04-27T05:13:38;14.87;;;7.17;;
7845;SDS011;3968;51.424;6.788;2023-04-27T05:16:04;13.10;;;7.90;;
7845;SDS011;3968;51.424;6.788;2023-04-27T05:18:31;11.17;;;7.80;;
7845;SDS011;3968;51.424;6.788;2023-04-27T05:20:57;11.33;;;7.80;;
7845;SDS011;3968;51.424;6.788;2023-04-27T05:23:23;12.70;;;7.33;;
7845;SDS011;3968;51.424;6.788;2023-04-27T05:25:49;9.73;;;7.47;;
7845;SDS011;3968;51.424;6.788;2023-04-27T05:28:15;14.57;;;7.93;;
7845;SDS011;3968;51.424;6.788;2023-04-27T05:30:41;15.67;;;8.17;;
7845;SDS011;3968;51.424;6.788;2023-04-27T05:33:07;11.10;;;7.83;;
7845;SDS011;3968;51.424;6.788;2023-04-27T05:35:34;14.53;;;8.50;;
7845;SDS011;3968;51.424;6.788;2023-04-27T05:38:00;18.37;;;10.23;;
7845;SDS011;3968;51.424;6.788;2023-04-27T05:40:26;13.43;;;8.90;;
7845;SDS011;3968;51.424;6.788;2023-04-27T05:42:52;13.63;;;8.80;;
7845;SDS011;3968;51.424;6.788;2023-04-27T05:45:18;10.70;;;7.70;;
7845;SDS011;3968;51.424;6.788;2023-04-27T05:47:44;10.43;;;7.57;;
7845;SDS011;3968;51.424;6.788;2023-04-27T05:50:10;11.90;;;7.77;;
7845;SDS011;3968;51.424;6.788;2023-04-27T05:52:36;13.00;;;7.30;;
7845;SDS011;3968;51.424;6.788;2023-04-27T05:55:03;11.43;;;7.73;;
7845;SDS011;3968;51.424;6.788;2023-04-27T05:57:29;9.13;;;7.27;;
7845;SDS011;3968;51.424;6.788;2023-04-27T05:59:55;10.77;;;6.80;;
7845;SDS011;3968;51.424;6.788;2023-04-27T06:02:21;13.23;;;7.20;;
7845;SDS011;3968;51.424;6.788;2023-04-27T06:04:47;12.77;;;7.27;;
7845;SDS011;3968;51.424;6.788;2023-04-27T06:07:14;10.43;;;6.50;;
7845;SDS011;3968;51.424;6.788;2023-04-27T06:09:40;8.57;;;6.30;;
7845;SDS011;3968;51.424;6.788;2023-04-27T06:12:06;11.67;;;6.90;;
7845;SDS011;3968;51.424;6.788;2023-04-27T06:14:34;15.47;;;6.67;;
7845;SDS011;3968;51.424;6.788;2023-04-27T06:17:01;10.93;;;5.80;;
7845;SDS011;3968;51.424;6.788;2023-04-27T06:19:27;9.30;;;6.20;;
7845;SDS011;3968;51.424;6.788;2023-04-27T06:21:53;10.13;;;5.70;;
7845;SDS011;3968;51.424;6.788;2023-04-27T06:24:20;12.33;;;6.83;;
7845;SDS011;3968;51.424;6.788;2023-04-27T06:26:49;10.13;;;6.07;;
7845;SDS011;3968;51.424;6.788;2023-04-27T06:29:15;9.23;;;5.80;;
7845;SDS011;3968;51.424;6.788;2023-04-27T06:31:41;10.10;;;5.90;;
7845;SDS011;3968;51.424;6.788;2023-04-27T06:34:07;10.30;;;5.90;;
7845;SDS011;3968;51.424;6.788;2023-04-27T06:36:33;8.40;;;4.93;;
7845;SDS011;3968;51.424;6.788;2023-04-27T06:39:00;13.43;;;5.27;;
7845;SDS011;3968;51.424;6.788;2023-04-27T06:41:26;9.23;;;4.97;;
7845;SDS011;3968;51.424;6.788;2023-04-27T06:43:52;5.20;;;4.30;;
7845;SDS011;3968;51.424;6.788;2023-04-27T06:46:18;12.67;;;5.83;;
7845;SDS011;3968;51.424;6.788;2023-04-27T06:48:45;8.57;;;5.20;;
7845;SDS011;3968;51.424;6.788;2023-04-27T06:51:11;8.80;;;5.37;;
7845;SDS011;3968;51.424;6.788;2023-04-27T06:53:38;7.73;;;5.03;;
7845;SDS011;3968;51.424;6.788;2023-04-27T06:56:04;11.50;;;5.70;;
7845;SDS011;3968;51.424;6.788;2023-04-27T06:58:31;5.90;;;4.90;;
7845;SDS011;3968;51.424;6.788;2023-04-27T07:00:57;7.40;;;5.07;;
7845;SDS011;3968;51.424;6.788;2023-04-27T07:03:26;10.17;;;5.07;;
7845;SDS011;3968;51.424;6.788;2023-04-27T07:05:52;8.67;;;5.30;;
7845;SDS011;3968;51.424;6.788;2023-04-27T07:08:18;8.07;;;4.73;;
7845;SDS011;3968;51.424;6.788;2023-04-27T07:10:44;9.10;;;5.57;;
7845;SDS011;3968;51.424;6.788;2023-04-27T07:13:10;8.13;;;5.00;;
7845;SDS011;3968;51.424;6.788;2023-04-27T07:15:36;9.17;;;5.27;;
7845;SDS011;3968;51.424;6.788;2023-04-27T07:18:02;9.47;;;5.93;;
7845;SDS011;3968;51.424;6.788;2023-04-27T07:20:28;12.03;;;5.67;;
7845;SDS011;3968;51.424;6.788;2023-04-27T07:22:54;10.53;;;5.80;;
7845;SDS011;3968;51.424;6.788;2023-04-27T07:25:20;8.60;;;5.33;;
7845;SDS011;3968;51.424;6.788;2023-04-27T07:27:46;12.77;;;5.50;;
7845;SDS011;3968;51.424;6.788;2023-04-27T07:30:12;9.87;;;4.90;;
7845;SDS011;3968;51.424;6.788;2023-04-27T07:32:39;10.20;;;5.40;;
7845;SDS011;3968;51.424;6.788;2023-04-27T07:35:06;10.10;;;5.60;;
7845;SDS011;3968;51.424;6.788;2023-04-27T07:37:33;10.67;;;5.73;;
7845;SDS011;3968;51.424;6.788;2023-04-27T07:39:59;12.73;;;5.43;;
7845;SDS011;3968;51.424;6.788;2023-04-27T07:42:26;9.50;;;4.97;;
7845;SDS011;3968;51.424;6.788;2023-04-27T07:44:52;7.17;;;4.87;;
7845;SDS011;3968;51.424;6.788;2023-04-27T07:47:18;6.70;;;4.67;;
7845;SDS011;3968;51.424;6.788;2023-04-27T07:49:44;8.37;;;4.77;;
7845;SDS011;3968;51.424;6.788;2023-04-27T07:52:11;6.70;;;4.43;;
7845;SDS011;3968;51.424;6.788;2023-04-27T07:54:37;5.90;;;4.57;;
7845;SDS011;3968;51.424;6.788;2023-04-27T07:57:06;8.20;;;4.30;;
7845;SDS011;3968;51.424;6.788;2023-04-27T07:59:33;9.10;;;4.13;;
7845;SDS011;3968;51.424;6.788;2023-04-27T08:01:59;6.13;;;3.57;;
7845;SDS011;3968;51.424;6.788;2023-04-27T08:04:25;12.13;;;4.70;;
7845;SDS011;3968;51.424;6.788;2023-04-27T08:06:51;9.23;;;4.70;;
7845;SDS011;3968;51.424;6.788;2023-04-27T08:09:17;10.63;;;4.70;;
7845;SDS011;3968;51.424;6.788;2023-04-27T08:11:43;8.07;;;4.17;;
7845;SDS011;3968;51.424;6.788;2023-04-27T08:14:09;5.33;;;3.90;;
7845;SDS011;3968;51.424;6.788;2023-04-27T08:16:39;7.57;;;4.73;;
7845;SDS011;3968;51.424;6.788;2023-04-27T08:19:05;8.33;;;3.93;;
7845;SDS011;3968;51.424;6.788;2023-04-27T08:21:31;46.37;;;30.03;;
7845;SDS011;3968;51.424;6.788;2023-04-27T08:23:57;84.93;;;50.67;;
7845;SDS011;3968;51.424;6.788;2023-04-27T08:26:23;28.30;;;17.80;;
7845;SDS011;3968;51.424;6.788;2023-04-27T08:28:49;22.13;;;12.27;;
7845;SDS011;3968;51.424;6.788;2023-04-27T08:31:15;8.67;;;4.77;;
7845;SDS011;3968;51.424;6.788;2023-04-27T08:33:41;6.03;;;3.93;;
7845;SDS011;3968;51.424;6.788;2023-04-27T08:36:07;6.87;;;4.23;;
7845;SDS011;3968;51.424;6.788;2023-04-27T08:38:33;7.33;;;4.50;;
7845;SDS011;3968;51.424;6.788;2023-04-27T08:41:00;7.07;;;4.13;;
7845;SDS011;3968;51.424;6.788;2023-04-27T08:43:31;6.70;;;3.73;;
7845;SDS011;3968;51.424;6.788;2023-04-27T08:45:57;10.40;;;4.03;;
7845;SDS011;3968;51.424;6.788;2023-04-27T08:48:23;7.27;;;3.37;;
7845;SDS011;3968;51.424;6.788;2023-04-27T08:50:49;9.87;;;4.20;;
7845;SDS011;3968;51.424;6.788;2023-04-27T08:53:19;8.00;;;3.80;;
7845;SDS011;3968;51.424;6.788;2023-04-27T08:55:46;10.03;;;3.73;;
7845;SDS011;3968;51.424;6.788;2023-04-27T08:58:12;5.77;;;3.10;;
7845;SDS011;3968;51.424;6.788;2023-04-27T09:00:39;7.43;;;3.10;;
7845;SDS011;3968;51.424;6.788;2023-04-27T09:03:21;7.13;;;3.23;;
7845;SDS011;3968;51.424;6.788;2023-04-27T09:05:47;9.57;;;3.33;;
7845;SDS011;3968;51.424;6.788;2023-04-27T09:08:13;7.23;;;3.20;;
7845;SDS011;3968;51.424;6.788;2023-04-27T09:10:45;9.73;;;3.73;;
7845;SDS011;3968;51.424;6.788;2023-04-27T09:13:11;6.47;;;3.60;;
7845;SDS011;3968;51.424;6.788;2023-04-27T09:15:55;6.23;;;3.77;;
7845;SDS011;3968;51.424;6.788;2023-04-27T09:18:22;9.73;;;5.20;;
7845;SDS011;3968;51.424;6.788;2023-04-27T09:20:49;9.20;;;4.20;;
7845;SDS011;3968;51.424;6.788;2023-04-27T09:23:32;5.67;;;3.40;;
7845;SDS011;3968;51.424;6.788;2023-04-27T09:25:59;9.03;;;3.77;;
7845;SDS011;3968;51.424;6.788;2023-04-27T09:28:25;6.43;;;3.60;;
7845;SDS011;3968;51.424;6.788;2023-04-27T09:30:52;4.23;;;3.23;;
7845;SDS011;3968;51.424;6.788;2023-04-27T09:33:22;4.80;;;3.50;;
7845;SDS011;3968;51.424;6.788;2023-04-27T09:35:48;5.83;;;3.50;;
7845;SDS011;3968;51.424;6.788;2023-04-27T09:38:15;5.07;;;3.07;;
7845;SDS011;3968;51.424;6.788;2023-04-27T09:40:41;6.20;;;3.20;;
7845;SDS011;3968;51.424;6.788;2023-04-27T09:43:07;2.83;;;2.20;;
7845;SDS011;3968;51.424;6.788;2023-04-27T09:45:34;4.67;;;3.03;;
7845;SDS011;3968;51.424;6.788;2023-04-27T09:48:01;5.90;;;3.47;;
7845;SDS011;3968;51.424;6.788;2023-04-27T09:50:29;3.97;;;3.20;;
7845;SDS011;3968;51.424;6.788;2023-04-27T09:52:55;5.07;;;2.97;;
7845;SDS011;3968;51.424;6.788;2023-04-27T09:55:27;5.67;;;3.30;;
7845;SDS011;3968;51.424;6.788;2023-04-27T09:58:03;4.73;;;3.30;;
7845;SDS011;3968;51.424;6.788;2023-04-27T10:03:22;4.27;;;3.07;;
7845;SDS011;3968;51.424;6.788;2023-04-27T10:08:33;4.63;;;3.60;;
7845;SDS011;3968;51.424;6.788;2023-04-27T10:10:59;8.10;;;3.60;;
7845;SDS011;3968;51.424;6.788;2023-04-27T10:13:26;4.67;;;3.37;;
7845;SDS011;3968;51.424;6.788;2023-04-27T10:15:52;4.87;;;3.23;;
7845;SDS011;3968;51.424;6.788;2023-04-27T10:18:30;4.93;;;3.23;;
7845;SDS011;3968;51.424;6.788;2023-04-27T10:21:07;6.37;;;3.40;;
7845;SDS011;3968;51.424;6.788;2023-04-27T10:23:43;5.30;;;3.83;;
7845;SDS011;3968;51.424;6.788;2023-04-27T10:26:10;6.93;;;3.60;;
7845;SDS011;3968;51.424;6.788;2023-04-27T10:28:38;6.70;;;3.87;;
7845;SDS011;3968;51.424;6.788;2023-04-27T10:31:08;4.97;;;4.30;;
7845;SDS011;3968;51.424;6.788;2023-04-27T10:33:40;6.73;;;3.90;;
7845;SDS011;3968;51.424;6.788;2023-04-27T10:36:12;5.10;;;3.40;;
7845;SDS011;3968;51.424;6.788;2023-04-27T10:38:39;5.17;;;3.50;;
7845;SDS011;3968;51.424;6.788;2023-04-27T10:41:11;4.53;;;3.60;;
7845;SDS011;3968;51.424;6.788;2023-04-27T10:43:38;4.83;;;3.43;;
7845;SDS011;3968;51.424;6.788;2023-04-27T10:46:08;5.93;;;3.53;;
7845;SDS011;3968;51.424;6.788;2023-04-27T10:48:34;8.57;;;3.93;;
7845;SDS011;3968;51.424;6.788;2023-04-27T10:51:00;4.90;;;3.97;;
7845;SDS011;3968;51.424;6.788;2023-04-27T10:53:32;5.43;;;3.93;;
7845;SDS011;3968;51.424;6.788;2023-04-27T10:55:59;6.53;;;3.70;;
7845;SDS011;3968;51.424;6.788;2023-04-27T10:58:25;8.03;;;4.30;;
7845;SDS011;3968;51.424;6.788;2023-04-27T11:00:51;5.67;;;3.90;;
7845;SDS011;3968;51.424;6.788;2023-04-27T11:03:18;8.10;;;3.70;;
7845;SDS011;3968;51.424;6.788;2023-04-27T11:05:45;5.83;;;3.43;;
7845;SDS011;3968;51.424;6.788;2023-04-27T11:08:12;9.07;;;4.53;;
7845;SDS011;3968;51.424;6.788;2023-04-27T11:10:39;6.93;;;4.63;;
7845;SDS011;3968;51.424;6.788;2023-04-27T11:13:08;8.27;;;4.10;;
7845;SDS011;3968;51.424;6.788;2023-04-27T11:18:16;6.00;;;3.77;;
7845;SDS011;3968;51.424;6.788;2023-04-27T11:20:43;6.13;;;3.53;;
7845;SDS011;3968;51.424;6.788;2023-04-27T11:23:09;5.00;;;3.40;;
7845;SDS011;3968;51.424;6.788;2023-04-27T11:25:36;6.87;;;3.80;;
7845;SDS011;3968;51.424;6.788;2023-04-27T11:28:02;3.77;;;3.20;;
7845;SDS011;3968;51.424;6.788;2023-04-27T11:30:29;5.87;;;3.57;;
7845;SDS011;3968;51.424;6.788;2023-04-27T11:32:55;4.27;;;3.30;;
7845;SDS011;3968;51.424;6.788;2023-04-27T11:35:31;4.27;;;3.70;;
7845;SDS011;3968;51.424;6.788;2023-04-27T11:37:58;4.27;;;3.30;;
7845;SDS011;3968;51.424;6.788;2023-04-27T11:40:24;4.70;;;3.63;;
7845;SDS011;3968;51.424;6.788;2023-04-27T11:42:58;4.87;;;3.60;;
7845;SDS011;3968;51.424;6.788;2023-04-27T11:45:27;5.97;;;3.60;;
7845;SDS011;3968;51.424;6.788;2023-04-27T11:47:54;4.17;;;3.47;;
7845;SDS011;3968;51.424;6.788;2023-04-27T11:50:22;4.33;;;3.83;;
7845;SDS011;3968;51.424;6.788;2023-04-27T11:52:49;5.30;;;3.50;;
7845;SDS011;3968;51.424;6.788;2023-04-27T11:55:18;5.57;;;3.30;;
7845;SDS011;3968;51.424;6.788;2023-04-27T11:57:44;8.40;;;4.37;;
7845;SDS011;3968;51.424;6.788;2023-04-27T12:00:11;7.90;;;4.20;;
7845;SDS011;3968;51.424;6.788;2023-04-27T12:02:38;6.30;;;4.10;;
7845;SDS011;3968;51.424;6.788;2023-04-27T12:05:05;6.13;;;4.50;;
7845;SDS011;3968;51.424;6.788;2023-04-27T12:07:31;5.73;;;4.10;;
7845;SDS011;3968;51.424;6.788;2023-04-27T12:09:58;5.03;;;4.00;;
7845;SDS011;3968;51.424;6.788;2023-04-27T12:12:24;4.77;;;3.90;;
7845;SDS011;3968;51.424;6.788;2023-04-27T12:14:51;7.23;;;3.73;;
7845;SDS011;3968;51.424;6.788;2023-04-27T12:17:17;6.87;;;3.77;;
7845;SDS011;3968;51.424;6.788;2023-04-27T12:19:43;6.20;;;3.90;;
7845;SDS011;3968;51.424;6.788;2023-04-27T12:22:10;5.72;;;4.05;;
7845;SDS011;3968;51.424;6.788;2023-04-27T12:24:36;5.00;;;4.03;;
7845;SDS011;3968;51.424;6.788;2023-04-27T12:27:02;7.83;;;4.10;;
7845;SDS011;3968;51.424;6.788;2023-04-27T12:29:29;4.90;;;3.50;;
7845;SDS011;3968;51.424;6.788;2023-04-27T12:31:58;6.00;;;4.67;;
7845;SDS011;3968;51.424;6.788;2023-04-27T12:34:24;6.03;;;4.40;;
7845;SDS011;3968;51.424;6.788;2023-04-27T12:36:50;5.30;;;4.23;;
7845;SDS011;3968;51.424;6.788;2023-04-27T12:39:17;6.07;;;3.63;;
7845;SDS011;3968;51.424;6.788;2023-04-27T12:41:44;5.57;;;4.03;;
7845;SDS011;3968;51.424;6.788;2023-04-27T12:44:10;8.97;;;3.90;;
7845;SDS011;3968;51.424;6.788;2023-04-27T12:46:37;6.60;;;3.63;;
7845;SDS011;3968;51.424;6.788;2023-04-27T12:49:03;5.20;;;3.67;;
7845;SDS011;3968;51.424;6.788;2023-04-27T12:51:30;6.50;;;4.00;;
7845;SDS011;3968;51.424;6.788;2023-04-27T12:53:57;6.30;;;4.20;;
7845;SDS011;3968;51.424;6.788;2023-04-27T12:56:23;4.57;;;3.70;;
7845;SDS011;3968;51.424;6.788;2023-04-27T12:58:49;10.80;;;5.80;;
7845;SDS011;3968;51.424;6.788;2023-04-27T13:01:15;5.00;;;4.07;;
7845;SDS011;3968;51.424;6.788;2023-04-27T13:03:42;5.97;;;4.00;;
7845;SDS011;3968;51.424;6.788;2023-04-27T13:06:08;7.67;;;4.47;;
7845;SDS011;3968;51.424;6.788;2023-04-27T13:08:37;6.37;;;3.93;;
7845;SDS011;3968;51.424;6.788;2023-04-27T13:11:03;7.85;;;4.47;;
7845;SDS011;3968;51.424;6.788;2023-04-27T13:13:29;10.77;;;5.00;;
7845;SDS011;3968;51.424;6.788;2023-04-27T13:15:55;5.00;;;4.00;;
7845;SDS011;3968;51.424;6.788;2023-04-27T13:18:22;5.87;;;3.97;;
7845;SDS011;3968;51.424;6.788;2023-04-27T13:20:48;6.18;;;4.47;;
7845;SDS011;3968;51.424;6.788;2023-04-27T13:23:14;7.43;;;4.60;;
7845;SDS011;3968;51.424;6.788;2023-04-27T13:25:40;7.85;;;4.18;;
7845;SDS011;3968;51.424;6.788;2023-04-27T13:28:06;6.82;;;4.20;;
7845;SDS011;3968;51.424;6.788;2023-04-27T13:30:32;6.10;;;4.80;;
7845;SDS011;3968;51.424;6.788;2023-04-27T13:32:58;8.07;;;4.72;;
7845;SDS011;3968;51.424;6.788;2023-04-27T13:35:25;7.67;;;4.97;;
7845;SDS011;3968;51.424;6.788;2023-04-27T13:37:51;7.80;;;5.20;;
7845;SDS011;3968;51.424;6.788;2023-04-27T13:40:20;11.47;;;6.90;;
7845;SDS011;3968;51.424;6.788;2023-04-27T13:42:46;7.93;;;6.10;;
7845;SDS011;3968;51.424;6.788;2023-04-27T13:45:12;4.67;;;4.23;;
7845;SDS011;3968;51.424;6.788;2023-04-27T13:47:39;5.70;;;4.55;;
7845;SDS011;3968;51.424;6.788;2023-04-27T13:50:05;7.53;;;5.40;;
7845;SDS011;3968;51.424;6.788;2023-04-27T13:52:31;8.65;;;5.00;;
7845;SDS011;3968;51.424;6.788;2023-04-27T13:54:57;7.83;;;4.60;;
7845;SDS011;3968;51.424;6.788;2023-04-27T13:57:23;7.57;;;4.37;;
7845;SDS011;3968;51.424;6.788;2023-04-27T13:59:49;7.22;;;4.40;;
7845;SDS011;3968;51.424;6.788;2023-04-27T14:02:15;7.90;;;4.73;;
7845;SDS011;3968;51.424;6.788;2023-04-27T14:04:41;9.17;;;4.47;;
7845;SDS011;3968;51.424;6.788;2023-04-27T14:07:07;11.03;;;4.97;;
7845;SDS011;3968;51.424;6.788;2023-04-27T14:09:33;9.75;;;4.97;;
7845;SDS011;3968;51.424;6.788;2023-04-27T14:11:59;5.95;;;4.47;;
7845;SDS011;3968;51.424;6.788;2023-04-27T14:14:25;7.07;;;5.00;;
7845;SDS011;3968;51.424;6.788;2023-04-27T14:16:52;9.63;;;6.28;;
7845;SDS011;3968;51.424;6.788;2023-04-27T14:19:18;10.43;;;6.18;;
7845;SDS011;3968;51.424;6.788;2023-04-27T14:21:47;10.13;;;6.13;;
7845;SDS011;3968;51.424;6.788;2023-04-27T14:24:14;9.95;;;6.10;;
7845;SDS011;3968;51.424;6.788;2023-04-27T14:26:40;11.97;;;6.20;;
7845;SDS011;3968;51.424;6.788;2023-04-27T14:29:08;9.10;;;5.50;;
7845;SDS011;3968;51.424;6.788;2023-04-27T14:31:36;12.48;;;6.15;;
7845;SDS011;3968;51.424;6.788;2023-04-27T14:34:02;14.90;;;7.30;;
7845;SDS011;3968;51.424;6.788;2023-04-27T14:36:28;11.30;;;6.85;;
7845;SDS011;3968;51.424;6.788;2023-04-27T14:38:55;10.63;;;5.83;;
7845;SDS011;3968;51.424;6.788;2023-04-27T14:41:21;10.13;;;6.17;;
7845;SDS011;3968;51.424;6.788;2023-04-27T14:43:47;9.40;;;5.40;;
7845;SDS011;3968;51.424;6.788;2023-04-27T14:46:15;6.65;;;5.00;;
7845;SDS011;3968;51.424;6.788;2023-04-27T14:48:41;92.27;;;59.00;;
7845;SDS011;3968;51.424;6.788;2023-04-27T14:51:07;93.50;;;64.53;;
7845;SDS011;3968;51.424;6.788;2023-04-27T14:53:33;108.60;;;71.47;;
7845;SDS011;3968;51.424;6.788;2023-04-27T14:55:59;11.93;;;9.38;;
7845;SDS011;3968;51.424;6.788;2023-04-27T14:58:25;9.83;;;6.53;;
7845;SDS011;3968;51.424;6.788;2023-04-27T15:00:51;9.87;;;5.60;;
7845;SDS011;3968;51.424;6.788;2023-04-27T15:03:17;9.45;;;6.13;;
7845;SDS011;3968;51.424;6.788;2023-04-27T15:05:44;6.37;;;4.97;;
7845;SDS011;3968;51.424;6.788;2023-04-27T15:08:10;12.23;;;6.97;;
7845;SDS011;3968;51.424;6.788;2023-04-27T15:10:36;11.82;;;6.30;;
7845;SDS011;3968;51.424;6.788;2023-04-27T15:13:02;9.67;;;6.57;;
7845;SDS011;3968;51.424;6.788;2023-04-27T15:15:28;12.10;;;7.43;;